createdAt,value
2022-12-14T00:01:45.100Z,99967.16
2022-12-14T00:04:19.245Z,99959.22
2022-12-14T00:06:47.131Z,99966.56
2022-12-14T00:09:15.308Z,99955.69
2022-12-14T00:11:43.238Z,99952.97
2022-12-14T00:14:11.095Z,99949.41
2022-12-14T00:16:38.957Z,99944.00
2022-12-14T00:19:07.147Z,99942.09
2022-12-14T00:21:36.388Z,99944.00
2022-12-14T00:24:04.386Z,99942.94
2022-12-14T00:26:32.776Z,99941.28
2022-12-14T00:29:01.656Z,99933.13
2022-12-14T00:31:29.683Z,99936.91
2022-12-14T00:33:57.654Z,99935.63
2022-12-14T00:36:25.530Z,99937.72
2022-12-14T00:38:55.038Z,99934.19
2022-12-14T00:41:22.994Z,99931.47
2022-12-14T00:43:50.836Z,99927.91
2022-12-14T00:46:18.792Z,99927.91
2022-12-14T00:48:47.197Z,99918.72
2022-12-14T00:51:15.751Z,99909.72
2022-12-14T00:53:44.911Z,99917.88
2022-12-14T00:56:14.163Z,99918.72
2022-12-14T00:58:42.336Z,99910.56
2022-12-14T01:01:13.443Z,99912.44
2022-12-14T01:03:41.512Z,99909.72
2022-12-14T01:06:14.756Z,99911.88
2022-12-14T01:08:42.926Z,99904.56
2022-12-14T01:11:13.659Z,99887.44
2022-12-14T01:13:42.992Z,99884.47
2022-12-14T01:16:11.849Z,99890.72
2022-12-14T01:18:40.586Z,99882.56
2022-12-14T01:21:12.838Z,99877.41
2022-12-14T01:23:40.750Z,99885.28
2022-12-14T01:26:08.616Z,99877.41
2022-12-14T01:28:36.889Z,99863.00
2022-12-14T01:31:10.125Z,99864.63
2022-12-14T01:33:38.120Z,99863.56
2022-12-14T01:36:07.360Z,99857.06
2022-12-14T01:38:35.500Z,99850.81
2022-12-14T01:41:03.430Z,99853.75
2022-12-14T01:43:46.243Z,99853.53
2022-12-14T01:46:21.120Z,99854.84
2022-12-14T01:48:49.337Z,99860.00
2022-12-14T01:51:17.167Z,99864.38
2022-12-14T01:53:45.087Z,99856.47
2022-12-14T01:56:13.055Z,99843.72
2022-12-14T01:58:41.279Z,99847.25
2022-12-14T02:01:11.258Z,99840.16
2022-12-14T02:03:42.343Z,99836.38
2022-12-14T02:06:11.651Z,99687.06
2022-12-14T02:08:39.760Z,99824.69
2022-12-14T02:11:07.627Z,99826.59
2022-12-14T02:13:36.688Z,99814.91
2022-12-14T02:16:04.593Z,99810.28
2022-12-14T02:18:33.103Z,99807.56
2022-12-14T02:21:13.271Z,99804.84
2022-12-14T02:24:34.329Z,99798.34
2022-12-14T02:27:23.806Z,99802.97
2022-12-14T02:30:16.834Z,99801.34
2022-12-14T02:32:54.519Z,99800.50
2022-12-14T02:35:27.839Z,99785.03
2022-12-14T02:38:05.603Z,99787.75
2022-12-14T02:40:36.201Z,99780.41
2022-12-14T02:43:09.015Z,99785.03
2022-12-14T02:45:40.729Z,99785.03
2022-12-14T02:48:10.007Z,99786.09
2022-12-14T02:50:42.095Z,99785.03
2022-12-14T02:53:13.288Z,99759.47
2022-12-14T02:55:43.390Z,99783.13
2022-12-14T02:58:13.164Z,99733.75
2022-12-14T03:00:42.729Z,99771.19
2022-12-14T03:03:10.682Z,99766.81
2022-12-14T03:05:38.718Z,99761.38
2022-12-14T03:08:07.635Z,99764.09
2022-12-14T03:10:38.670Z,99753.16
2022-12-14T03:13:11.564Z,99748.63
2022-12-14T03:15:40.097Z,99735.31
2022-12-14T03:18:09.446Z,99742.38
2022-12-14T03:20:38.167Z,99747.00
2022-12-14T03:23:08.807Z,99742.38
2022-12-14T03:25:40.594Z,99747.81
2022-12-14T03:28:10.000Z,99745.91
2022-12-14T03:30:59.279Z,99752.44
2022-12-14T03:33:28.478Z,99724.41
2022-12-14T03:35:58.294Z,99758.69
2022-12-14T03:38:30.680Z,99744.44
2022-12-14T03:41:01.524Z,99760.59
2022-12-14T03:43:36.680Z,99754.06
2022-12-14T03:46:06.267Z,99749.97
2022-12-14T03:48:38.013Z,99760.59
2022-12-14T03:51:09.893Z,99750.78
2022-12-14T03:53:40.579Z,99752.44
2022-12-14T03:56:10.872Z,99751.63
2022-12-14T03:58:39.989Z,99721.94
2022-12-14T04:01:10.011Z,99752.44
2022-12-14T04:03:47.401Z,99753.25
2022-12-14T04:06:20.024Z,99747.00
2022-12-14T04:08:50.717Z,99735.56
2022-12-14T04:11:35.673Z,99743.22
2022-12-14T04:14:24.006Z,99740.75
2022-12-14T04:17:09.582Z,99740.75
2022-12-14T04:19:41.063Z,99729.19
2022-12-14T04:22:09.644Z,99739.09
2022-12-14T04:24:57.606Z,99722.72
2022-12-14T04:27:27.954Z,99728.25
2022-12-14T04:29:59.535Z,99721.75
2022-12-14T04:32:30.970Z,99725.53
2022-12-14T04:35:02.205Z,99720.66
2022-12-14T04:37:30.066Z,99719.03
2022-12-14T04:39:59.790Z,99720.91
2022-12-14T04:42:28.970Z,99718.19
2022-12-14T04:44:59.424Z,99713.59
2022-12-14T04:47:31.426Z,99714.41
2022-12-14T04:50:02.701Z,99712.75
2022-12-14T04:52:32.668Z,99702.13
2022-12-14T04:55:02.395Z,99709.00
2022-12-14T04:57:33.142Z,99708.41
2022-12-14T05:00:01.366Z,99701.63
2022-12-14T05:02:34.189Z,99686.56
2022-12-14T05:05:06.838Z,99696.47
2022-12-14T05:07:37.725Z,99653.38
2022-12-14T05:10:07.295Z,99695.41
2022-12-14T05:12:38.844Z,99691.03
2022-12-14T05:15:10.443Z,99692.69
2022-12-14T05:17:38.562Z,99687.25
2022-12-14T05:20:13.943Z,99680.72
2022-12-14T05:22:41.845Z,99670.13
2022-12-14T05:25:10.013Z,99665.53
2022-12-14T05:27:37.928Z,99664.44
2022-12-14T05:30:08.604Z,99657.94
2022-12-14T05:32:36.464Z,99653.84
2022-12-14T05:35:04.860Z,99649.22
2022-12-14T05:37:34.154Z,99643.78
2022-12-14T05:40:02.391Z,99649.22
2022-12-14T05:42:31.367Z,99640.25
2022-12-14T05:44:59.307Z,99633.72
2022-12-14T05:47:27.668Z,99631.84
2022-12-14T05:49:55.543Z,99637.28
2022-12-14T05:52:25.635Z,99648.97
2022-12-14T05:54:57.174Z,99640.00
2022-12-14T05:57:28.850Z,99632.09
2022-12-14T05:59:57.021Z,99644.34
2022-12-14T06:02:25.008Z,99641.63
2022-12-14T06:04:52.979Z,99638.94
2022-12-14T06:07:27.326Z,99636.22
2022-12-14T06:09:57.425Z,99638.94
2022-12-14T06:12:26.123Z,99633.41
2022-12-14T06:14:53.957Z,99634.56
2022-12-14T06:17:21.860Z,99638.94
2022-12-14T06:19:50.557Z,99636.22
2022-12-14T06:22:18.877Z,99636.22
2022-12-14T06:24:46.955Z,99641.63
2022-12-14T06:27:16.241Z,99639.75
2022-12-14T06:29:44.500Z,99645.19
2022-12-14T06:32:12.438Z,99634.09
2022-12-14T06:34:42.386Z,99628.28
2022-12-14T06:37:10.925Z,99636.22
2022-12-14T06:39:38.829Z,99637.03
2022-12-14T06:42:06.928Z,99640.59
2022-12-14T06:44:36.195Z,99643.28
2022-12-14T06:47:04.110Z,99635.16
2022-12-14T06:49:32.712Z,99635.16
2022-12-14T06:52:00.551Z,99644.94
2022-12-14T06:54:28.569Z,99635.16
2022-12-14T06:56:56.795Z,99627.81
2022-12-14T06:59:24.670Z,99625.09
2022-12-14T07:01:54.330Z,99625.09
2022-12-14T07:04:22.856Z,99628.88
2022-12-14T07:06:50.678Z,99625.09
2022-12-14T07:09:19.407Z,99620.50
2022-12-14T07:11:47.283Z,99622.38
2022-12-14T07:14:15.991Z,99620.50
2022-12-14T07:16:47.696Z,99614.25
2022-12-14T07:19:18.275Z,99611.53
2022-12-14T07:21:46.195Z,99619.09
2022-12-14T07:24:14.080Z,99624.28
2022-12-14T07:26:41.985Z,99617.78
2022-12-14T07:29:12.001Z,99620.75
2022-12-14T07:31:39.980Z,99623.47
2022-12-14T07:34:07.890Z,99616.38
2022-12-14T07:36:37.172Z,99621.56
2022-12-14T07:39:05.984Z,99618.84
2022-12-14T07:41:33.839Z,99626.16
2022-12-14T07:44:01.741Z,99627.00
2022-12-14T07:46:30.477Z,99623.47
2022-12-14T07:48:59.442Z,99637.88
2022-12-14T07:51:28.611Z,99638.09
2022-12-14T07:53:57.934Z,99634.31
2022-12-14T07:56:26.650Z,99637.03
2022-12-14T07:58:55.667Z,99635.38
2022-12-14T08:01:25.597Z,99637.03
2022-12-14T08:03:54.802Z,99627.00
2022-12-14T08:06:23.805Z,99637.88
2022-12-14T08:08:52.439Z,99636.22
2022-12-14T08:11:22.694Z,99636.22
2022-12-14T08:13:54.102Z,99647.91
2022-12-14T08:16:22.294Z,99642.47
2022-12-14T08:18:50.214Z,99644.34
2022-12-14T08:21:20.971Z,99642.47
2022-12-14T08:23:48.929Z,99650.84
2022-12-14T08:26:16.872Z,99637.28
2022-12-14T08:28:47.658Z,99637.28
2022-12-14T08:31:16.630Z,99639.75
2022-12-14T08:33:44.700Z,99638.09
2022-12-14T08:36:13.456Z,99639.75
2022-12-14T08:38:41.691Z,99638.09
2022-12-14T08:41:10.468Z,99634.56
2022-12-14T08:43:38.367Z,99631.84
2022-12-14T08:46:08.406Z,99630.22
2022-12-14T08:48:36.763Z,99630.44
2022-12-14T08:51:04.807Z,99629.94
2022-12-14T08:53:33.058Z,99636.22
2022-12-14T08:56:05.166Z,99635.38
2022-12-14T08:58:33.354Z,99641.63
2022-12-14T09:01:03.207Z,99641.88
2022-12-14T09:03:32.962Z,99634.81
2022-12-14T09:06:04.630Z,99650.03
2022-12-14T09:08:32.810Z,99648.97
2022-12-14T09:11:00.939Z,99650.03
2022-12-14T09:13:29.467Z,99645.19
2022-12-14T09:15:59.101Z,99654.16
2022-12-14T09:18:27.653Z,99647.91
2022-12-14T09:20:57.598Z,99655.22
2022-12-14T09:23:26.587Z,99658.75
2022-12-14T09:26:01.823Z,99662.31
2022-12-14T09:28:30.114Z,99665.03
2022-12-14T09:31:00.514Z,99662.81
2022-12-14T09:33:28.937Z,99671.28
2022-12-14T09:36:03.218Z,99663.13
2022-12-14T09:38:32.166Z,99657.94
2022-12-14T09:41:03.931Z,99659.84
2022-12-14T09:43:40.661Z,99656.28
2022-12-14T09:46:20.991Z,99658.44
2022-12-14T09:48:49.162Z,99659.50
2022-12-14T09:51:18.779Z,99659.50
2022-12-14T09:53:47.391Z,99651.59
2022-12-14T09:56:17.383Z,99661.63
2022-12-14T09:58:51.613Z,99667.06
2022-12-14T10:01:43.569Z,99667.31
2022-12-14T10:04:14.235Z,99661.63
2022-12-14T10:06:45.415Z,99661.91
2022-12-14T10:09:15.937Z,99660.25
2022-12-14T10:11:48.285Z,99663.19
2022-12-14T10:14:18.916Z,99662.97
2022-12-14T10:16:51.965Z,99656.47
2022-12-14T10:19:27.306Z,99661.91
2022-12-14T10:21:58.608Z,99664.34
2022-12-14T10:24:27.907Z,99660.81
2022-12-14T10:26:56.416Z,99667.88
2022-12-14T10:29:30.467Z,99655.03
2022-12-14T10:32:04.296Z,99668.72
2022-12-14T10:34:32.632Z,99674.16
2022-12-14T10:37:09.533Z,99664.09
2022-12-14T10:39:49.316Z,99672.03
2022-12-14T10:42:21.486Z,99669.03
2022-12-14T10:45:09.776Z,99664.09
2022-12-14T10:47:43.905Z,99668.81
2022-12-14T10:50:16.953Z,99629.59
2022-12-14T10:52:46.525Z,99654.16
2022-12-14T10:55:16.455Z,99655.00
2022-12-14T10:57:44.342Z,99652.28
2022-12-14T11:00:22.623Z,99656.88
2022-12-14T11:02:53.606Z,99658.75
2022-12-14T11:05:32.537Z,99668.56
2022-12-14T11:08:06.744Z,99658.75
2022-12-14T11:10:36.064Z,99654.16
2022-12-14T11:13:05.060Z,99664.19
2022-12-14T11:15:34.808Z,99661.25
2022-12-14T11:18:05.738Z,99655.00
2022-12-14T11:20:34.045Z,99656.63
2022-12-14T11:23:09.277Z,99637.53
2022-12-14T11:25:39.508Z,99644.94
2022-12-14T11:28:25.611Z,99642.47
2022-12-14T11:30:56.301Z,99646.84
2022-12-14T11:33:24.295Z,99607.56
2022-12-14T11:35:52.486Z,99649.78
2022-12-14T11:38:22.039Z,99643.28
2022-12-14T11:40:49.927Z,99646.00
2022-12-14T11:43:26.411Z,99655.00
2022-12-14T11:45:55.654Z,99653.09
2022-12-14T11:48:24.512Z,99641.41
2022-12-14T11:50:54.047Z,99645.78
2022-12-14T11:53:23.842Z,99644.72
2022-12-14T11:55:56.944Z,99644.94
2022-12-14T11:58:27.678Z,99642.47
2022-12-14T12:00:59.971Z,99505.19
2022-12-14T12:03:30.060Z,99638.69
2022-12-14T12:06:01.466Z,99636.81
2022-12-14T12:08:32.926Z,99644.72
2022-12-14T12:11:02.723Z,99641.16
2022-12-14T12:13:31.990Z,99637.63
2022-12-14T12:16:00.882Z,99640.34
2022-12-14T12:18:33.249Z,99641.16
2022-12-14T12:21:04.480Z,99636.56
2022-12-14T12:23:36.485Z,99631.94
2022-12-14T12:26:08.137Z,99635.47
2022-12-14T12:28:36.110Z,99619.81
2022-12-14T12:31:10.496Z,99648.00
2022-12-14T12:33:41.808Z,99649.88
2022-12-14T12:36:09.801Z,99644.03
2022-12-14T12:38:50.476Z,99650.94
2022-12-14T12:41:31.719Z,99596.38
2022-12-14T12:44:02.236Z,99651.78
2022-12-14T12:46:30.984Z,99652.03
2022-12-14T12:49:01.990Z,99654.75
2022-12-14T12:51:31.187Z,99659.09
2022-12-14T12:54:02.524Z,99656.38
2022-12-14T12:56:37.356Z,99659.09
2022-12-14T12:59:05.295Z,99657.19
2022-12-14T13:01:35.029Z,99656.63
2022-12-14T13:04:04.348Z,99667.25
2022-12-14T13:06:33.198Z,99678.09
2022-12-14T13:09:06.531Z,99673.50
2022-12-14T13:11:39.008Z,99667.25
2022-12-14T13:14:10.688Z,99658.03
2022-12-14T13:16:39.321Z,99661.81
2022-12-14T13:19:41.028Z,99666.19
2022-12-14T13:22:04.954Z,99664.06
2022-12-14T13:24:35.070Z,99659.91
2022-12-14T13:27:20.338Z,99670.53
2022-12-14T13:29:55.425Z,99672.94
2022-12-14T13:32:36.908Z,99656.78
2022-12-14T13:35:08.480Z,99671.59
2022-12-14T13:37:54.101Z,99678.69
2022-12-14T13:40:58.130Z,99676.47
2022-12-14T13:43:35.122Z,99681.66
2022-12-14T13:46:06.695Z,99677.88
2022-12-14T13:48:36.929Z,99655.56
2022-12-14T13:51:06.057Z,99676.22
2022-12-14T13:53:37.329Z,99676.13
2022-12-14T13:56:05.414Z,99672.44
2022-12-14T13:58:38.920Z,99680.59
2022-12-14T14:01:08.435Z,99677.88
2022-12-14T14:03:51.447Z,99684.97
2022-12-14T14:06:24.457Z,99685.19
2022-12-14T14:08:52.758Z,99684.38
2022-12-14T14:11:56.556Z,99685.69
2022-12-14T14:14:36.530Z,99688.66
2022-12-14T14:17:08.507Z,99683.81
2022-12-14T14:19:39.311Z,99684.88
2022-12-14T14:22:23.234Z,99688.41
2022-12-14T14:24:59.607Z,99684.03
2022-12-14T14:27:29.799Z,99685.09
2022-12-14T14:29:59.179Z,99684.28
2022-12-14T14:32:38.566Z,99684.53
2022-12-14T14:35:08.176Z,99687.25
2022-12-14T14:37:36.306Z,99689.16
2022-12-14T14:40:38.305Z,99696.47
2022-12-14T14:43:21.965Z,99700.25
2022-12-14T14:45:52.300Z,99701.91
2022-12-14T14:48:23.886Z,99703.56
2022-12-14T14:50:57.807Z,99706.28
2022-12-14T14:53:28.680Z,99708.16
2022-12-14T14:56:21.381Z,99705.44
2022-12-14T14:58:49.305Z,99717.94
2022-12-14T15:01:22.350Z,99721.47
2022-12-14T15:03:58.250Z,99723.97
2022-12-14T15:06:27.610Z,99730.72
2022-12-14T15:08:59.071Z,99735.06
2022-12-14T15:11:28.008Z,99740.50
2022-12-14T15:13:59.329Z,99735.88
2022-12-14T15:16:33.288Z,99742.97
2022-12-14T15:19:23.689Z,99738.88
2022-12-14T15:21:53.182Z,99738.88
2022-12-14T15:24:21.051Z,99739.66
2022-12-14T15:26:48.957Z,99734.00
2022-12-14T15:29:20.794Z,99737.53
2022-12-14T15:31:56.091Z,99734.59
2022-12-14T15:34:26.909Z,99746.28
2022-12-14T15:36:54.797Z,99749.81
2022-12-14T15:39:30.362Z,99756.88
2022-12-14T15:42:03.949Z,99762.31
2022-12-14T15:44:31.838Z,99763.16
2022-12-14T15:47:01.053Z,99769.41
2022-12-14T15:49:29.284Z,99774.59
2022-12-14T15:51:57.194Z,99772.72
2022-12-14T15:54:25.927Z,99773.53
2022-12-14T15:56:55.409Z,99777.09
2022-12-14T15:59:24.801Z,99756.22
2022-12-14T16:01:59.997Z,99780.63
2022-12-14T16:04:32.403Z,99785.81
2022-12-14T16:07:08.475Z,99794.53
2022-12-14T16:09:38.569Z,99792.88
2022-12-14T16:12:07.730Z,99801.03
2022-12-14T16:14:38.125Z,99803.53
2022-12-14T16:17:06.056Z,99802.69
2022-12-14T16:19:57.593Z,99798.91
2022-12-14T16:22:24.570Z,99792.66
2022-12-14T16:25:01.538Z,99805.19
2022-12-14T16:27:29.672Z,99805.19
2022-12-14T16:30:21.851Z,99822.28
2022-12-14T16:32:50.624Z,99811.41
2022-12-14T16:35:26.164Z,99809.53
2022-12-14T16:37:55.672Z,99804.59
2022-12-14T16:40:27.796Z,99805.66
2022-12-14T16:42:55.725Z,99820.16
2022-12-14T16:46:11.942Z,99821.81
2022-12-14T16:48:41.886Z,99829.97
2022-12-14T16:54:29.630Z,99826.41
2022-12-14T16:57:02.669Z,99821.59
2022-12-14T16:59:36.834Z,99828.06
2022-12-14T17:02:04.864Z,99822.03
2022-12-14T17:04:35.599Z,99822.88
2022-12-14T17:07:04.951Z,99822.03
2022-12-14T17:09:35.334Z,99829.13
2022-12-14T17:12:07.314Z,99840.84
2022-12-14T17:14:35.201Z,99833.75
2022-12-14T17:17:03.891Z,99830.19
2022-12-14T17:19:33.674Z,99847.34
2022-12-14T17:22:01.625Z,99841.91
2022-12-14T17:24:30.844Z,99842.72
2022-12-14T17:26:58.761Z,99841.78
2022-12-14T17:29:27.716Z,99858.44
2022-12-14T17:31:57.011Z,99853.81
2022-12-14T17:34:26.138Z,99851.94
2022-12-14T17:36:54.030Z,99847.56
2022-12-14T17:39:23.890Z,99856.53
2022-12-14T17:41:53.179Z,99854.88
2022-12-14T17:44:21.448Z,99859.53
2022-12-14T17:46:49.974Z,99858.44
2022-12-14T17:49:33.835Z,99853.25
2022-12-14T17:52:02.003Z,99853.25
2022-12-14T17:54:29.930Z,99858.69
2022-12-14T17:56:59.238Z,99857.88
2022-12-14T17:59:28.023Z,99857.88
2022-12-14T18:01:56.021Z,99858.69
2022-12-14T18:04:24.011Z,99855.38
2022-12-14T18:06:51.898Z,99859.53
2022-12-14T18:09:20.010Z,99867.91
2022-12-14T18:12:20.939Z,99864.34
2022-12-14T18:14:37.063Z,99856.22
2022-12-14T18:17:11.018Z,99860.81
2022-12-14T18:19:39.646Z,99863.75
2022-12-14T18:22:07.697Z,99864.34
2022-12-14T18:24:35.616Z,99868.97
2022-12-14T18:27:03.455Z,99875.22
2022-12-14T18:29:31.610Z,99868.63
2022-12-14T18:32:01.115Z,99875.47
2022-12-14T18:34:29.107Z,99876.53
2022-12-14T18:36:58.191Z,99881.94
2022-12-14T18:39:26.349Z,99881.38
2022-12-14T18:41:54.914Z,99892.59
2022-12-14T18:44:24.077Z,99894.25
2022-12-14T18:46:52.015Z,99896.13
2022-12-14T18:49:23.197Z,99894.25
2022-12-14T18:51:51.087Z,99886.91
2022-12-14T18:54:18.933Z,99891.28
2022-12-14T18:56:46.815Z,99900.28
2022-12-14T18:59:18.007Z,99905.13
2022-12-14T19:01:45.957Z,99901.34
2022-12-14T19:04:13.951Z,99899.19
2022-12-14T19:06:45.019Z,99905.94
2022-12-14T19:09:13.571Z,99904.88
2022-12-14T19:11:41.808Z,99907.34
2022-12-14T19:14:10.115Z,99905.72
2022-12-14T19:16:38.142Z,99911.94
2022-12-14T19:19:06.435Z,99910.53
2022-12-14T19:21:34.325Z,99923.06
2022-12-14T19:24:04.097Z,99921.41
2022-12-14T19:26:32.016Z,99928.50
2022-12-14T19:29:00.214Z,99935.81
2022-12-14T19:31:28.220Z,99924.13
2022-12-14T19:33:56.109Z,99919.75
2022-12-14T19:36:24.835Z,99929.34
2022-12-14T19:38:53.019Z,99941.25
2022-12-14T19:41:22.267Z,99933.94
2022-12-14T19:43:50.228Z,99931.22
2022-12-14T19:46:18.394Z,99933.13
2022-12-14T19:48:46.718Z,99942.91
2022-12-14T19:51:14.828Z,99948.59
2022-12-14T19:53:43.685Z,99951.31
2022-12-14T19:56:13.315Z,99955.91
2022-12-14T19:58:42.843Z,99960.75
2022-12-14T20:01:10.810Z,99958.03
2022-12-14T20:03:39.349Z,99950.69
2022-12-14T20:06:07.577Z,99952.59
2022-12-14T20:08:36.403Z,99952.59
2022-12-14T20:11:05.739Z,99951.78
2022-12-14T20:13:34.148Z,99960.50
2022-12-14T20:16:03.629Z,99959.13
2022-12-14T20:18:32.324Z,99957.22
2022-12-14T20:21:03.808Z,99960.75
2022-12-14T20:23:32.821Z,99954.50
2022-12-14T20:26:02.118Z,99955.56
2022-12-14T20:28:30.371Z,99976.25
2022-12-14T20:30:58.316Z,99981.69
2022-12-14T20:33:30.525Z,99980.84
2022-12-14T20:35:59.046Z,99978.13
2022-12-14T20:38:27.335Z,99983.56
2022-12-14T20:40:55.338Z,99988.16
2022-12-14T20:43:23.424Z,99990.88
2022-12-14T20:45:51.367Z,99990.06
2022-12-14T20:48:19.305Z,100001.75
2022-12-14T20:50:49.838Z,100004.47
2022-12-14T20:53:18.366Z,100018.28
2022-12-14T20:55:46.248Z,100012.84
2022-12-14T20:58:14.178Z,100017.44
2022-12-14T21:00:42.131Z,100024.78
2022-12-14T21:03:10.105Z,100015.22
2022-12-14T21:05:40.683Z,100021.22
2022-12-14T21:08:09.954Z,100025.59
2022-12-14T21:10:38.135Z,100027.50
2022-12-14T21:13:07.888Z,100026.66
2022-12-14T21:15:36.573Z,100029.38
2022-12-14T21:18:04.652Z,100035.63
2022-12-14T21:20:32.840Z,100031.53
2022-12-14T21:23:00.848Z,100041.34
2022-12-14T21:25:30.360Z,100041.34
2022-12-14T21:27:58.335Z,100042.97
2022-12-14T21:30:26.457Z,100042.13
2022-12-14T21:32:54.342Z,100041.34
2022-12-14T21:35:22.305Z,100036.69
2022-12-14T21:37:50.173Z,100031.53
2022-12-14T21:40:32.222Z,100033.97
2022-12-14T21:43:01.437Z,100035.91
2022-12-14T21:45:29.305Z,100035.06
2022-12-14T21:47:57.308Z,100037.78
2022-12-14T21:50:25.464Z,100040.50
2022-12-14T21:52:53.354Z,100050.53
2022-12-14T21:55:22.223Z,100050.53
2022-12-14T21:58:07.524Z,100044.28
2022-12-14T22:00:38.571Z,100044.28
2022-12-14T22:03:06.545Z,100040.72
2022-12-14T22:05:34.532Z,100033.88
2022-12-14T22:08:02.418Z,100043.69
2022-12-14T22:10:30.330Z,100038.00
2022-12-14T22:12:58.227Z,100039.91
2022-12-14T22:15:26.159Z,100029.25
2022-12-14T22:17:55.398Z,100034.47
2022-12-14T22:20:23.528Z,100044.50
2022-12-14T22:22:51.713Z,100035.53
2022-12-14T22:25:19.614Z,100048.88
2022-12-14T22:27:50.188Z,100046.88
2022-12-14T22:30:19.087Z,100061.84
2022-12-14T22:32:47.817Z,100059.16
2022-12-14T22:35:18.096Z,100058.31
2022-12-14T22:37:46.426Z,100061.03
2022-12-14T22:40:14.777Z,100048.28
2022-12-14T22:42:42.672Z,100048.28
2022-12-14T22:45:11.155Z,100047.44
2022-12-14T22:47:39.016Z,100047.44
2022-12-14T22:50:08.236Z,100043.31
2022-12-14T22:52:37.536Z,100048.53
2022-12-14T22:55:06.013Z,100055.59
2022-12-14T22:57:34.234Z,100054.41
2022-12-14T23:00:04.818Z,100066.47
2022-12-14T23:02:32.839Z,100064.84
2022-12-14T23:05:00.792Z,100056.06
2022-12-14T23:07:28.710Z,100066.72
2022-12-14T23:10:15.768Z,100075.94
2022-12-14T23:13:01.008Z,100069.66
2022-12-14T23:15:46.403Z,100068.84
2022-12-14T23:18:32.053Z,100068.84
2022-12-14T23:21:17.346Z,100062.56
2022-12-14T23:24:03.031Z,100070.72
2022-12-14T23:26:50.367Z,100079.09
2022-12-14T23:29:35.540Z,100083.72
2022-12-14T23:32:20.905Z,100084.53
2022-12-14T23:35:06.403Z,100075.56
2022-12-14T23:37:51.983Z,100085.34
2022-12-14T23:40:37.127Z,100095.38
2022-12-14T23:43:28.673Z,100092.94
2022-12-14T23:46:14.298Z,100089.38
2022-12-14T23:48:59.371Z,100084.78
2022-12-14T23:51:44.566Z,100085.84
2022-12-14T23:54:29.916Z,100089.38
2022-12-14T23:57:15.631Z,100094.00
